Time;durP1;ratioP1;P1;durP2;ratioP2;P2;SDS_P1;SDS_P2;PMS_P1;PMS_P2;Temp;Humidity;BMP_temperature;BMP_pressure;BME280_temperature;BME280_humidity;BME280_pressure;Samples;Min_cycle;Max_cycle;Signal;HPM_P1;HPM_P2
2023/03/06 00:00:58;;;;;;;4.82;3.20;;;;;;;;;;10255715;28;20038;-84
2023/03/06 00:06:01;;;;;;;5.82;3.50;;;;;;;;;;10219975;28;20061;-87
2023/03/06 00:11:06;;;;;;;5.45;3.30;;;;;;;;;;10231000;28;20101;-85
2023/03/06 00:16:10;;;;;;;4.60;2.90;;;;;;;;;;10245790;28;20531;-86
2023/03/06 00:21:13;;;;;;;4.88;3.55;;;;;;;;;;10217691;28;20043;-82
2023/03/06 00:26:18;;;;;;;4.55;3.33;;;;;;;;;;10225252;28;20194;-81
2023/03/06 00:31:22;;;;;;;3.95;2.80;;;;;;;;;;10230884;28;20039;-85
2023/03/06 00:36:25;;;;;;;4.30;2.70;;;;;;;;;;10255323;28;20217;-85
2023/03/06 00:41:30;;;;;;;3.30;2.70;;;;;;;;;;10237497;28;20066;-86
2023/03/06 00:46:33;;;;;;;4.75;3.13;;;;;;;;;;10227385;28;20050;-85
2023/03/06 00:51:37;;;;;;;2.92;2.47;;;;;;;;;;10264167;28;20038;-87
2023/03/06 00:56:42;;;;;;;2.40;2.10;;;;;;;;;;10227549;28;20617;-82
2023/03/06 01:01:46;;;;;;;2.42;1.67;;;;;;;;;;10231327;28;20058;-82
2023/03/06 01:06:49;;;;;;;1.63;1.48;;;;;;;;;;10252990;28;20525;-82
2023/03/06 01:11:54;;;;;;;2.72;2.00;;;;;;;;;;10227618;28;20047;-83
2023/03/06 01:16:58;;;;;;;3.85;2.72;;;;;;;;;;10233609;28;20817;-82
2023/03/06 01:22:01;;;;;;;1.85;1.52;;;;;;;;;;10218529;28;20061;-82
2023/03/06 01:27:06;;;;;;;2.50;1.70;;;;;;;;;;10217911;28;20047;-83
2023/03/06 01:32:09;;;;;;;2.53;1.90;;;;;;;;;;10233759;28;20480;-82
2023/03/06 01:37:12;;;;;;;3.28;2.25;;;;;;;;;;10224490;28;20043;-86
2023/03/06 01:42:17;;;;;;;4.30;2.90;;;;;;;;;;10238466;28;20043;-88
2023/03/06 01:47:21;;;;;;;5.10;3.47;;;;;;;;;;10222678;28;20053;-82
2023/03/06 01:52:26;;;;;;;5.45;3.88;;;;;;;;;;10251660;28;20042;-82
2023/03/06 01:57:34;;;;;;;7.15;4.15;;;;;;;;;;10249773;28;20054;-82
2023/03/06 02:02:39;;;;;;;7.55;5.13;;;;;;;;;;10238099;28;20034;-82
2023/03/06 02:07:44;;;;;;;6.00;3.93;;;;;;;;;;10212541;28;20070;-83
2023/03/06 02:12:51;;;;;;;5.38;4.10;;;;;;;;;;10238166;28;20421;-82
2023/03/06 02:17:55;;;;;;;;;;;;;;;;;;10234166;28;20047;-82
2023/03/06 02:23:04;;;;;;;4.97;3.35;;;;;;;;;;10223700;28;19936;-82
2023/03/06 02:28:11;;;;;;;5.28;3.80;;;;;;;;;;10223396;28;20739;-82
2023/03/06 02:33:18;;;;;;;4.20;3.10;;;;;;;;;;10237215;28;20129;-82
2023/03/06 02:38:26;;;;;;;4.90;3.43;;;;;;;;;;10236620;28;20248;-82
2023/03/06 02:43:34;;;;;;;5.30;3.83;;;;;;;;;;10241772;28;20298;-82
2023/03/06 02:48:38;;;;;;;8.15;5.43;;;;;;;;;;10227023;28;20051;-82
2023/03/06 02:53:42;;;;;;;10.52;6.88;;;;;;;;;;10217990;28;20669;-82
2023/03/06 02:58:47;;;;;;;11.07;6.13;;;;;;;;;;10235261;28;20090;-84
2023/03/06 03:03:51;;;;;;;11.87;6.27;;;;;;;;;;10242409;28;20127;-84
2023/03/06 03:08:56;;;;;;;8.60;5.77;;;;;;;;;;10236839;28;20426;-85
2023/03/06 03:14:01;;;;;;;8.10;5.38;;;;;;;;;;10259775;28;20055;-85
2023/03/06 03:19:06;;;;;;;7.05;4.82;;;;;;;;;;10245569;28;20078;-84
2023/03/06 03:24:10;;;;;;;8.70;5.18;;;;;;;;;;10240543;28;20623;-87
2023/03/06 03:29:14;;;;;;;7.07;4.78;;;;;;;;;;10240266;28;20286;-81
2023/03/06 03:34:18;;;;;;;8.00;5.80;;;;;;;;;;10257118;28;20093;-83
2023/03/06 03:39:22;;;;;;;8.32;4.90;;;;;;;;;;10225471;28;20058;-82
2023/03/06 03:44:27;;;;;;;5.85;4.65;;;;;;;;;;10245570;28;20047;-83
2023/03/06 03:49:32;;;;;;;5.97;4.00;;;;;;;;;;10224208;28;20046;-83
2023/03/06 03:54:36;;;;;;;6.50;4.18;;;;;;;;;;10250024;28;20298;-85
2023/03/06 03:59:41;;;;;;;8.15;5.00;;;;;;;;;;10242011;28;20051;-88
2023/03/06 04:04:55;;;;;;;6.70;4.70;;;;;;;;;;10248498;28;20142;-87
2023/03/06 04:09:58;;;;;;;5.55;4.13;;;;;;;;;;10264068;28;20043;-84
2023/03/06 04:15:07;;;;;;;6.80;4.30;;;;;;;;;;10249273;28;20054;-86
2023/03/06 04:20:13;;;;;;;8.77;5.30;;;;;;;;;;10242909;28;20515;-83
2023/03/06 04:25:17;;;;;;;10.18;5.95;;;;;;;;;;10248158;28;20047;-84
2023/03/06 04:30:23;;;;;;;8.82;5.80;;;;;;;;;;10226023;28;20040;-85
2023/03/06 04:35:27;;;;;;;7.20;4.38;;;;;;;;;;10232553;28;20612;-87
2023/03/06 04:40:37;;;;;;;7.03;5.03;;;;;;;;;;10237202;28;20129;-85
2023/03/06 04:45:42;;;;;;;6.35;4.63;;;;;;;;;;10227853;28;20055;-85
2023/03/06 04:50:45;;;;;;;4.85;3.55;;;;;;;;;;10241769;28;20178;-84
2023/03/06 04:55:49;;;;;;;8.10;4.75;;;;;;;;;;10249492;28;20047;-84
2023/03/06 05:00:53;;;;;;;7.43;5.18;;;;;;;;;;10242276;28;20047;-83
2023/03/06 05:05:57;;;;;;;6.43;4.43;;;;;;;;;;10242391;28;20101;-84
2023/03/06 05:11:01;;;;;;;5.95;4.30;;;;;;;;;;10241543;28;20599;-82
2023/03/06 05:16:08;;;;;;;5.38;3.90;;;;;;;;;;10225688;28;20054;-82
2023/03/06 05:21:11;;;;;;;;;;;;;;;;;;10245498;28;20449;-85
2023/03/06 05:26:15;;;;;;;6.82;4.82;;;;;;;;;;10231973;28;19922;-86
2023/03/06 05:31:20;;;;;;;7.97;5.90;;;;;;;;;;10231004;28;20047;-85
2023/03/06 05:36:24;;;;;;;7.68;5.50;;;;;;;;;;10239925;28;20596;-83
2023/03/06 05:41:27;;;;;;;10.02;6.70;;;;;;;;;;10250688;28;20583;-83
2023/03/06 05:46:32;;;;;;;9.15;6.05;;;;;;;;;;10250395;28;20043;-82
2023/03/06 05:51:36;;;;;;;9.00;5.50;;;;;;;;;;10225452;28;20137;-83
2023/03/06 05:56:39;;;;;;;7.30;5.18;;;;;;;;;;10217906;28;20098;-85
2023/03/06 06:01:46;;;;;;;5.03;3.75;;;;;;;;;;10239642;28;20047;-83
2023/03/06 06:06:52;;;;;;;6.32;3.53;;;;;;;;;;10246519;28;20500;-86
2023/03/06 06:11:58;;;;;;;10.10;5.40;;;;;;;;;;10224167;28;20042;-87
2023/03/06 06:17:03;;;;;;;8.73;6.00;;;;;;;;;;10235575;28;20548;-89
2023/03/06 06:22:07;;;;;;;8.63;5.75;;;;;;;;;;10239348;28;20549;-86
2023/03/06 06:27:11;;;;;;;9.63;5.72;;;;;;;;;;10241085;28;20507;-87
2023/03/06 06:32:16;;;;;;;9.13;6.20;;;;;;;;;;10237797;28;20090;-89
2023/03/06 06:37:19;;;;;;;9.65;6.88;;;;;;;;;;10238281;28;20066;-84
2023/03/06 06:42:23;;;;;;;11.07;7.60;;;;;;;;;;10224780;28;20123;-86
2023/03/06 06:47:43;;;;;;;10.23;6.50;;;;;;;;;;10270778;28;20105;-85
2023/03/06 06:52:47;;;;;;;8.07;5.23;;;;;;;;;;10239448;28;20127;-86
2023/03/06 06:57:50;;;;;;;6.97;3.95;;;;;;;;;;10245299;28;20047;-90
2023/03/06 07:02:55;;;;;;;7.32;4.40;;;;;;;;;;10252294;28;20502;-87
2023/03/06 07:07:58;;;;;;;6.07;4.07;;;;;;;;;;10248171;28;20126;-88
2023/03/06 07:13:02;;;;;;;4.40;3.55;;;;;;;;;;10257139;28;20113;-86
2023/03/06 07:18:07;;;;;;;3.80;3.05;;;;;;;;;;10269606;28;20047;-86
2023/03/06 07:23:12;;;;;;;6.55;3.63;;;;;;;;;;10243880;28;20047;-87
2023/03/06 07:28:16;;;;;;;5.72;3.60;;;;;;;;;;10261135;28;20047;-89
2023/03/06 07:33:23;;;;;;;4.97;3.67;;;;;;;;;;10240081;28;20191;-86
2023/03/06 07:38:26;;;;;;;3.72;2.92;;;;;;;;;;10242163;28;20046;-88
2023/03/06 07:43:30;;;;;;;4.35;3.30;;;;;;;;;;10252012;28;20532;-85
2023/03/06 07:48:40;;;;;;;7.25;4.45;;;;;;;;;;10254195;28;20051;-86
2023/03/06 07:53:44;;;;;;;9.02;5.72;;;;;;;;;;10253529;28;20103;-86
2023/03/06 07:58:48;;;;;;;6.78;4.95;;;;;;;;;;10278712;28;20842;-84
2023/03/06 08:03:52;;;;;;;8.63;5.80;;;;;;;;;;10248817;28;20502;-87
2023/03/06 08:08:57;;;;;;;6.53;4.55;;;;;;;;;;10239603;28;20137;-85
2023/03/06 08:14:00;;;;;;;7.57;5.18;;;;;;;;;;10246781;28;20121;-86
2023/03/06 08:19:05;;;;;;;13.13;8.90;;;;;;;;;;10239369;28;20129;-88
2023/03/06 08:24:09;;;;;;;14.65;8.88;;;;;;;;;;10232473;28;20035;-84
2023/03/06 08:29:14;;;;;;;17.70;10.23;;;;;;;;;;10245588;28;20047;-87
2023/03/06 08:34:20;;;;;;;13.02;8.23;;;;;;;;;;10237476;28;20425;-85
2023/03/06 08:39:24;;;;;;;15.13;9.40;;;;;;;;;;10236172;28;20101;-84
2023/03/06 08:44:33;;;;;;;17.73;9.53;;;;;;;;;;10233172;28;20050;-89
2023/03/06 08:49:39;;;;;;;15.98;9.57;;;;;;;;;;10236906;28;20058;-84
2023/03/06 08:54:42;;;;;;;13.20;8.90;;;;;;;;;;10228251;28;20407;-86
2023/03/06 08:59:46;;;;;;;10.05;6.65;;;;;;;;;;10229359;28;20051;-86
2023/03/06 09:04:51;;;;;;;14.88;8.15;;;;;;;;;;10253333;28;20062;-85
2023/03/06 09:09:57;;;;;;;10.52;7.03;;;;;;;;;;10225442;28;20049;-87
2023/03/06 09:15:03;;;;;;;18.35;10.43;;;;;;;;;;10233709;28;20158;-87
2023/03/06 09:20:08;;;;;;;;;;;;;;;;;;10252754;28;20043;-82
2023/03/06 09:25:16;;;;;;;13.82;8.68;;;;;;;;;;10221716;28;20025;-82
2023/03/06 09:30:19;;;;;;;13.55;8.73;;;;;;;;;;10231933;28;20051;-81
2023/03/06 09:35:24;;;;;;;13.10;8.25;;;;;;;;;;10219647;28;20054;-82
2023/03/06 09:40:42;;;;;;;14.88;10.02;;;;;;;;;;10222831;28;20174;-82
2023/03/06 09:45:46;;;;;;;9.82;6.50;;;;;;;;;;10248363;28;20106;-82
2023/03/06 09:50:57;;;;;;;16.13;9.80;;;;;;;;;;10253446;28;20042;-81
2023/03/06 09:56:05;;;;;;;15.43;9.25;;;;;;;;;;10226958;28;20062;-83
2023/03/06 10:01:17;;;;;;;16.83;8.13;;;;;;;;;;10233445;28;20049;-83
2023/03/06 10:06:26;;;;;;;14.95;10.00;;;;;;;;;;10235261;28;20125;-86
2023/03/06 10:11:35;;;;;;;12.63;7.72;;;;;;;;;;10239194;28;20050;-83
2023/03/06 10:16:39;;;;;;;10.65;6.85;;;;;;;;;;10240620;28;20054;-82
2023/03/06 10:21:48;;;;;;;11.05;6.97;;;;;;;;;;10254108;28;20074;-84
2023/03/06 10:26:59;;;;;;;9.27;6.47;;;;;;;;;;10254192;28;20051;-87
2023/03/06 10:32:11;;;;;;;8.43;6.22;;;;;;;;;;10269921;28;20075;-83
2023/03/06 10:37:21;;;;;;;12.45;8.02;;;;;;;;;;10237798;28;20047;-84
2023/03/06 10:42:25;;;;;;;12.10;7.82;;;;;;;;;;10217884;28;20126;-84
2023/03/06 10:47:34;;;;;;;8.70;5.60;;;;;;;;;;10245800;28;20039;-84
2023/03/06 10:52:38;;;;;;;;;;;;;;;;;;10261774;28;20664;-86
2023/03/06 10:57:42;;;;;;;11.68;7.63;;;;;;;;;;10254356;28;20625;-92
2023/03/06 11:02:46;;;;;;;9.38;7.05;;;;;;;;;;10244164;28;20145;-86
2023/03/06 11:07:58;;;;;;;9.43;6.15;;;;;;;;;;10242841;28;20447;-85
2023/03/06 11:13:05;;;;;;;9.93;6.75;;;;;;;;;;10240525;28;20057;-84
2023/03/06 11:18:27;;;;;;;12.60;8.88;;;;;;;;;;10231508;28;20070;-85
2023/03/06 11:23:41;;;;;;;11.35;7.03;;;;;;;;;;10253631;28;20039;-85
2023/03/06 11:28:48;;;;;;;13.35;9.20;;;;;;;;;;10234234;28;20531;-89
2023/03/06 11:33:58;;;;;;;9.38;5.93;;;;;;;;;;10249702;28;20513;-91
2023/03/06 11:39:12;;;;;;;6.25;4.57;;;;;;;;;;10246105;28;20054;-92
2023/03/06 11:44:23;;;;;;;6.15;4.38;;;;;;;;;;10232173;28;20054;-84
2023/03/06 11:49:33;;;;;;;10.95;6.60;;;;;;;;;;10244957;28;20130;-83
2023/03/06 11:54:38;;;;;;;10.05;6.65;;;;;;;;;;10239231;28;20145;-83
2023/03/06 12:00:03;;;;;;;9.57;6.75;;;;;;;;;;10221237;28;20074;-84
2023/03/06 12:05:26;;;;;;;6.55;4.80;;;;;;;;;;10243214;28;20055;-83
2023/03/06 12:10:38;;;;;;;12.52;8.30;;;;;;;;;;10232838;28;20047;-84
2023/03/06 12:16:06;;;;;;;11.98;7.68;;;;;;;;;;10250424;28;20046;-84
2023/03/06 12:21:16;;;;;;;11.15;6.43;;;;;;;;;;10232745;28;20046;-84
2023/03/06 12:26:37;;;;;;;9.23;6.70;;;;;;;;;;10250901;28;20042;-84
2023/03/06 12:31:48;;;;;;;9.40;6.43;;;;;;;;;;10232984;28;20046;-84
2023/03/06 12:37:04;;;;;;;9.23;6.32;;;;;;;;;;10222280;28;20055;-83
2023/03/06 12:42:41;;;;;;;10.93;7.13;;;;;;;;;;10239196;28;20054;-83
2023/03/06 12:47:46;;;;;;;10.13;5.78;;;;;;;;;;10222024;28;20050;-84
2023/03/06 12:52:51;;;;;;;12.47;7.97;;;;;;;;;;10235792;28;20125;-84
2023/03/06 12:57:56;;;;;;;9.13;6.30;;;;;;;;;;10239157;28;20054;-84
2023/03/06 13:03:10;;;;;;;14.63;9.20;;;;;;;;;;10227848;28;20051;-84
2023/03/06 13:08:43;;;;;;;17.25;9.13;;;;;;;;;;10236442;28;20086;-90
2023/03/06 13:13:49;;;;;;;12.20;7.80;;;;;;;;;;10275159;28;20741;-86
2023/03/06 13:19:01;;;;;;;;;;;;;;;;;;10263994;28;20046;-86
2023/03/06 13:24:06;;;;;;;13.50;8.30;;;;;;;;;;10251608;28;19926;-87
2023/03/06 13:29:42;;;;;;;9.02;5.72;;;;;;;;;;10257949;28;20057;-85
2023/03/06 13:34:50;;;;;;;12.25;7.85;;;;;;;;;;10270796;28;20035;-89
2023/03/06 13:40:25;;;;;;;9.88;5.80;;;;;;;;;;10255848;28;20068;-85
2023/03/06 13:45:34;;;;;;;12.32;8.27;;;;;;;;;;10270826;28;20043;-86
2023/03/06 13:50:42;;;;;;;15.75;10.43;;;;;;;;;;10253686;28;20049;-86
2023/03/06 13:55:58;;;;;;;14.20;9.35;;;;;;;;;;10243256;23;20155;-84
2023/03/06 14:01:23;;;;;;;12.50;7.18;;;;;;;;;;10219360;28;20134;-87
2023/03/06 14:07:01;;;;;;;10.77;6.28;;;;;;;;;;10233371;28;20070;-87
2023/03/06 14:12:08;;;;;;;9.90;6.22;;;;;;;;;;10223285;28;20047;-86
2023/03/06 14:17:23;;;;;;;11.68;7.07;;;;;;;;;;10230146;28;20039;-86
2023/03/06 14:22:27;;;;;;;10.90;7.43;;;;;;;;;;10226413;28;20049;-86
2023/03/06 14:27:47;;;;;;;9.85;6.95;;;;;;;;;;10233377;28;20039;-87
2023/03/06 14:32:53;;;;;;;13.80;6.97;;;;;;;;;;10253693;28;20062;-86
2023/03/06 14:38:00;;;;;;;10.82;6.97;;;;;;;;;;10217882;29;20043;-86
2023/03/06 14:43:22;;;;;;;8.63;5.40;;;;;;;;;;10229393;28;20088;-85
2023/03/06 14:48:26;;;;;;;7.57;5.55;;;;;;;;;;10221340;28;20046;-87
2023/03/06 14:53:34;;;;;;;7.03;4.95;;;;;;;;;;10229009;28;20040;-84
2023/03/06 14:58:43;;;;;;;7.63;5.53;;;;;;;;;;10238359;28;20051;-86
2023/03/06 15:03:49;;;;;;;9.23;6.15;;;;;;;;;;10216026;28;20635;-86
2023/03/06 15:09:02;;;;;;;10.18;7.05;;;;;;;;;;10215349;28;20071;-87
2023/03/06 15:14:19;;;;;;;13.77;8.55;;;;;;;;;;10235389;28;20589;-88
2023/03/06 15:19:25;;;;;;;12.55;8.05;;;;;;;;;;10223517;28;20063;-88
2023/03/06 15:24:34;;;;;;;8.10;5.38;;;;;;;;;;10239766;28;20507;-87
2023/03/06 15:29:39;;;;;;;6.25;4.40;;;;;;;;;;10255580;28;20082;-87
2023/03/06 15:34:43;;;;;;;16.30;9.75;;;;;;;;;;10212903;28;20048;-86
2023/03/06 15:40:05;;;;;;;12.15;8.07;;;;;;;;;;10231793;28;20055;-88
2023/03/06 15:45:17;;;;;;;11.35;6.55;;;;;;;;;;10224504;28;20063;-87
2023/03/06 15:50:23;;;;;;;12.23;8.13;;;;;;;;;;10249052;28;20065;-88
2023/03/06 15:55:28;;;;;;;9.17;5.83;;;;;;;;;;10214994;28;20528;-87
2023/03/06 16:00:34;;;;;;;7.63;4.97;;;;;;;;;;10208547;28;20091;-87
2023/03/06 16:05:38;;;;;;;8.77;6.78;;;;;;;;;;10208786;28;20479;-86
2023/03/06 16:10:45;;;;;;;8.35;4.90;;;;;;;;;;10225231;28;20075;-85
2023/03/06 16:15:50;;;;;;;7.78;4.90;;;;;;;;;;10216716;28;20356;-85
2023/03/06 16:20:53;;;;;;;9.40;6.13;;;;;;;;;;10210047;28;20122;-86
2023/03/06 16:25:58;;;;;;;14.45;8.98;;;;;;;;;;10225074;28;20043;-86
2023/03/06 16:31:01;;;;;;;9.63;7.35;;;;;;;;;;10221285;28;20526;-86
2023/03/06 16:36:12;;;;;;;13.02;8.25;;;;;;;;;;10234241;28;20070;-85
2023/03/06 16:41:17;;;;;;;12.95;8.10;;;;;;;;;;10223647;28;20134;-85
2023/03/06 16:46:23;;;;;;;8.20;5.50;;;;;;;;;;10214706;28;20043;-86
2023/03/06 16:51:39;;;;;;;8.68;6.10;;;;;;;;;;10227590;28;20047;-85
2023/03/06 16:56:44;;;;;;;8.85;6.30;;;;;;;;;;10225252;28;20406;-86
2023/03/06 17:01:48;;;;;;;9.20;6.28;;;;;;;;;;10211954;28;20329;-87
2023/03/06 17:06:52;;;;;;;9.25;6.03;;;;;;;;;;10199263;28;20102;-85
2023/03/06 17:11:58;;;;;;;8.30;5.38;;;;;;;;;;10205502;28;20047;-87
2023/03/06 17:17:02;;;;;;;9.23;6.05;;;;;;;;;;10195015;29;20055;-87
2023/03/06 17:22:05;;;;;;;13.90;7.50;;;;;;;;;;10222380;28;20102;-86
2023/03/06 17:27:10;;;;;;;13.45;8.30;;;;;;;;;;10209152;28;20047;-86
2023/03/06 17:32:14;;;;;;;10.73;6.60;;;;;;;;;;10232436;28;20043;-86
2023/03/06 17:37:19;;;;;;;13.85;8.25;;;;;;;;;;10211272;28;20050;-87
2023/03/06 17:42:24;;;;;;;10.02;6.00;;;;;;;;;;10238959;28;20047;-86
2023/03/06 17:47:27;;;;;;;9.88;6.25;;;;;;;;;;10203184;28;20057;-86
2023/03/06 17:52:32;;;;;;;14.15;8.23;;;;;;;;;;10191897;28;20063;-86
2023/03/06 17:57:37;;;;;;;16.50;10.23;;;;;;;;;;10211377;28;20071;-86
2023/03/06 18:02:40;;;;;;;18.15;11.00;;;;;;;;;;10197566;28;20043;-86
2023/03/06 18:07:44;;;;;;;15.05;9.90;;;;;;;;;;10226355;28;20402;-87
2023/03/06 18:12:50;;;;;;;17.58;11.00;;;;;;;;;;10197397;28;20238;-87
2023/03/06 18:17:55;;;;;;;13.95;9.25;;;;;;;;;;10206766;28;20491;-87
2023/03/06 18:23:02;;;;;;;17.85;10.43;;;;;;;;;;10201582;28;20055;-86
2023/03/06 18:28:07;;;;;;;17.90;10.93;;;;;;;;;;10211275;28;20134;-87
2023/03/06 18:33:11;;;;;;;17.83;10.55;;;;;;;;;;10208574;28;20056;-86
2023/03/06 18:38:15;;;;;;;14.50;8.38;;;;;;;;;;10208057;28;20052;-86
2023/03/06 18:43:19;;;;;;;18.02;10.88;;;;;;;;;;10214851;28;20227;-86
2023/03/06 18:48:24;;;;;;;20.02;11.30;;;;;;;;;;10212580;28;20385;-86
2023/03/06 18:53:27;;;;;;;18.75;10.00;;;;;;;;;;10206884;28;20557;-85
2023/03/06 18:58:32;;;;;;;26.08;12.40;;;;;;;;;;10222321;28;20047;-85
2023/03/06 19:03:36;;;;;;;16.00;8.95;;;;;;;;;;10216732;28;20066;-86
2023/03/06 19:08:40;;;;;;;15.40;8.63;;;;;;;;;;10215373;28;20524;-87
2023/03/06 19:13:46;;;;;;;15.10;9.52;;;;;;;;;;10206542;28;20423;-86
2023/03/06 19:18:49;;;;;;;13.77;8.68;;;;;;;;;;10209198;28;20074;-86
2023/03/06 19:23:54;;;;;;;15.48;9.73;;;;;;;;;;10221187;28;20047;-86
2023/03/06 19:28:59;;;;;;;10.35;5.68;;;;;;;;;;10215619;28;20184;-86
2023/03/06 19:34:02;;;;;;;9.25;4.78;;;;;;;;;;10240318;28;20054;-86
2023/03/06 19:39:07;;;;;;;7.22;4.65;;;;;;;;;;10235117;28;20047;-86
2023/03/06 19:44:11;;;;;;;8.13;5.05;;;;;;;;;;10212290;28;20047;-86
2023/03/06 19:49:16;;;;;;;9.65;5.90;;;;;;;;;;10223294;28;20051;-86
2023/03/06 19:54:22;;;;;;;10.90;6.90;;;;;;;;;;10228430;28;20071;-87
2023/03/06 19:59:27;;;;;;;12.48;6.57;;;;;;;;;;10245487;28;20050;-86
2023/03/06 20:04:32;;;;;;;9.82;5.97;;;;;;;;;;10248997;28;20722;-87
2023/03/06 20:09:35;;;;;;;7.97;5.05;;;;;;;;;;10254085;28;20051;-86
2023/03/06 20:14:40;;;;;;;14.50;7.35;;;;;;;;;;10213490;29;20059;-87
2023/03/06 20:19:44;;;;;;;9.05;5.28;;;;;;;;;;10220686;28;20058;-86
2023/03/06 20:24:48;;;;;;;15.52;8.32;;;;;;;;;;10235392;28;20088;-89
2023/03/06 20:29:53;;;;;;;16.65;9.55;;;;;;;;;;10212595;29;20392;-87
2023/03/06 20:34:56;;;;;;;13.63;7.07;;;;;;;;;;10219413;28;20047;-86
2023/03/06 20:40:00;;;;;;;12.13;6.57;;;;;;;;;;10235746;28;20511;-88
2023/03/06 20:45:07;;;;;;;8.82;5.65;;;;;;;;;;10220998;28;20111;-89
2023/03/06 20:50:11;;;;;;;;;;;;;;;;;;10224437;28;20044;-88
2023/03/06 20:55:15;;;;;;;11.20;6.82;;;;;;;;;;10210845;29;19978;-87
2023/03/06 21:00:21;;;;;;;12.65;7.05;;;;;;;;;;10215267;28;20575;-87
2023/03/06 21:05:24;;;;;;;;;;;;;;;;;;10218250;28;20109;-86
2023/03/06 21:10:29;;;;;;;6.63;3.90;;;;;;;;;;10215411;28;20389;-87
2023/03/06 21:15:38;;;;;;;7.97;5.05;;;;;;;;;;10254656;28;20047;-86
2023/03/06 21:20:42;;;;;;;8.40;4.95;;;;;;;;;;10236437;28;20048;-87
2023/03/06 21:25:50;;;;;;;9.02;5.57;;;;;;;;;;10210458;28;20048;-87
2023/03/06 21:31:25;;;;;;;10.02;6.25;;;;;;;;;;10252495;23;20053;-81
2023/03/06 21:37:09;;;;;;;9.13;5.47;;;;;;;;;;10236567;28;20047;-81
2023/03/06 21:42:28;;;;;;;9.50;5.40;;;;;;;;;;10243008;28;20050;-81
2023/03/06 21:48:38;;;;;;;9.65;5.68;;;;;;;;;;10052078;29;20053;-81
2023/03/06 21:54:21;;;;;;;8.52;5.55;;;;;;;;;;10045960;29;20093;-81
2023/03/06 22:00:08;;;;;;;;;;;;;;;;;;;;;
2023/03/06 22:05:27;;;;;;;11.25;6.63;;;;;;;;;;10238530;28;20082;-81
2023/03/06 22:10:45;;;;;;;11.98;7.13;;;;;;;;;;10248597;28;20043;-80
2023/03/06 22:16:02;;;;;;;11.35;6.80;;;;;;;;;;10271004;28;20047;-81
2023/03/06 22:34:35;;;;;;;16.23;9.90;;;;;;;;;;9966680;29;20164;-82
2023/03/06 22:40:07;;;;;;;;;;;;;;;;;;;;;
2023/03/06 22:45:37;;;;;;;23.40;13.35;;;;;;;;;;10256562;28;20050;-81
2023/03/06 22:51:01;;;;;;;19.33;11.00;;;;;;;;;;10266724;28;20078;-80
2023/03/06 22:56:18;;;;;;;29.05;16.20;;;;;;;;;;10268534;28;20533;-80
2023/03/06 23:01:28;;;;;;;17.48;10.73;;;;;;;;;;10250398;28;20049;-81
2023/03/06 23:06:42;;;;;;;23.35;12.55;;;;;;;;;;10263583;28;20098;-80
2023/03/06 23:11:47;;;;;;;24.08;13.85;;;;;;;;;;10274874;28;20043;-80
2023/03/06 23:17:39;;;;;;;22.83;12.60;;;;;;;;;;10266934;28;20042;-80
2023/03/06 23:23:31;;;;;;;18.38;10.50;;;;;;;;;;10190954;28;20518;-80
2023/03/06 23:28:57;;;;;;;23.55;13.63;;;;;;;;;;10266921;28;20059;-80
2023/03/06 23:34:06;;;;;;;13.70;8.63;;;;;;;;;;10263253;28;20514;-80
2023/03/06 23:39:20;;;;;;;19.92;11.38;;;;;;;;;;10246418;28;20074;-81
2023/03/06 23:44:43;;;;;;;16.38;9.23;;;;;;;;;;10267502;28;20047;-80
2023/03/06 23:49:53;;;;;;;18.25;10.95;;;;;;;;;;10263922;28;20051;-78
2023/03/06 23:55:06;;;;;;;20.13;11.67;;;;;;;;;;10274530;28;20557;-78
